createdAt,value
2023-05-22T00:01:19.566Z,2.70
2023-05-22T00:03:46.750Z,2.92
2023-05-22T00:06:15.164Z,2.67
2023-05-22T00:08:42.149Z,3.28
2023-05-22T00:11:09.160Z,3.03
2023-05-22T00:13:36.245Z,3.00
2023-05-22T00:16:03.625Z,2.97
2023-05-22T00:18:30.783Z,3.00
2023-05-22T00:20:58.219Z,3.25
2023-05-22T00:23:27.994Z,3.55
2023-05-22T00:25:55.032Z,3.00
2023-05-22T00:28:22.184Z,3.50
2023-05-22T00:30:49.233Z,3.00
2023-05-22T00:33:16.348Z,3.38
2023-05-22T00:35:43.507Z,3.10
2023-05-22T00:38:32.715Z,3.30
2023-05-22T00:41:01.234Z,3.40
2023-05-22T00:43:28.678Z,3.30
2023-05-22T00:45:56.607Z,3.38
2023-05-22T00:48:24.628Z,3.22
2023-05-22T00:50:55.452Z,3.47
2023-05-22T00:53:24.532Z,3.10
2023-05-22T00:55:53.672Z,3.40
2023-05-22T00:58:21.981Z,3.22
2023-05-22T01:00:49.224Z,3.40
2023-05-22T01:03:17.794Z,3.28
2023-05-22T01:05:45.979Z,2.83
2023-05-22T01:08:13.061Z,3.55
2023-05-22T01:10:41.229Z,3.53
2023-05-22T01:13:34.485Z,3.17
2023-05-22T01:16:26.291Z,3.20
2023-05-22T01:19:11.290Z,3.47
2023-05-22T01:22:01.021Z,3.45
2023-05-22T01:24:46.895Z,3.20
2023-05-22T01:27:26.253Z,3.00
2023-05-22T01:30:11.616Z,3.00
2023-05-22T01:32:42.483Z,3.47
2023-05-22T01:35:12.970Z,3.40
2023-05-22T01:37:42.303Z,2.65
2023-05-22T01:40:10.717Z,3.42
2023-05-22T01:42:41.247Z,3.60
2023-05-22T01:45:11.247Z,2.45
2023-05-22T01:47:38.924Z,2.90
2023-05-22T01:50:07.130Z,2.63
2023-05-22T01:52:54.220Z,3.00
2023-05-22T01:58:53.122Z,2.35
2023-05-22T02:01:22.726Z,2.70
2023-05-22T02:03:56.331Z,3.35
2023-05-22T02:06:29.324Z,2.85
2023-05-22T02:08:57.190Z,2.83
2023-05-22T02:11:27.007Z,3.30
2023-05-22T02:13:54.354Z,3.08
2023-05-22T02:16:22.397Z,2.83
2023-05-22T02:18:49.698Z,3.17
2023-05-22T02:21:16.826Z,3.60
2023-05-22T02:23:43.916Z,2.78
2023-05-22T02:26:11.183Z,2.88
2023-05-22T02:28:38.286Z,3.00
2023-05-22T02:31:07.027Z,2.40
2023-05-22T02:33:34.116Z,2.15
2023-05-22T02:36:01.283Z,2.15
2023-05-22T02:38:28.444Z,2.53
2023-05-22T02:40:55.571Z,2.63
2023-05-22T02:43:22.586Z,2.90
2023-05-22T02:45:49.708Z,2.50
2023-05-22T02:48:17.618Z,2.65
2023-05-22T02:50:44.750Z,2.30
2023-05-22T02:53:12.145Z,2.67
2023-05-22T02:55:39.172Z,2.30
2023-05-22T02:58:06.602Z,2.72
2023-05-22T03:00:33.639Z,2.55
2023-05-22T03:03:00.902Z,2.40
2023-05-22T03:05:27.978Z,2.60
2023-05-22T03:07:55.030Z,2.42
2023-05-22T03:10:22.913Z,2.55
2023-05-22T03:12:51.883Z,2.47
2023-05-22T03:15:19.405Z,2.10
2023-05-22T03:17:47.603Z,2.35
2023-05-22T03:20:16.980Z,2.10
2023-05-22T03:22:45.888Z,2.33
2023-05-22T03:25:13.353Z,1.63
2023-05-22T03:27:43.758Z,1.83
2023-05-22T03:30:11.383Z,2.00
2023-05-22T03:32:41.179Z,2.05
2023-05-22T03:35:08.865Z,2.05
2023-05-22T03:37:36.133Z,1.60
2023-05-22T03:40:04.973Z,2.00
2023-05-22T03:42:32.089Z,2.00
2023-05-22T03:44:59.162Z,2.83
2023-05-22T03:47:26.981Z,2.40
2023-05-22T03:49:54.084Z,2.58
2023-05-22T03:52:23.021Z,2.20
2023-05-22T03:54:50.046Z,2.08
2023-05-22T03:57:19.969Z,2.20
2023-05-22T03:59:47.234Z,2.30
2023-05-22T04:02:16.890Z,2.70
2023-05-22T04:04:46.486Z,2.30
2023-05-22T04:07:13.816Z,2.70
2023-05-22T04:09:41.613Z,2.60
2023-05-22T04:12:08.917Z,2.72
2023-05-22T04:14:36.100Z,2.40
2023-05-22T04:17:03.272Z,2.50
2023-05-22T04:19:30.880Z,2.58
2023-05-22T04:21:58.680Z,2.60
2023-05-22T04:24:25.924Z,2.63
2023-05-22T04:26:53.393Z,2.65
2023-05-22T04:29:22.562Z,3.10
2023-05-22T04:31:49.648Z,3.08
2023-05-22T04:34:17.192Z,2.90
2023-05-22T04:36:45.393Z,3.28
2023-05-22T04:39:14.102Z,3.67
2023-05-22T04:41:41.495Z,3.28
2023-05-22T04:44:08.712Z,2.95
2023-05-22T04:46:36.219Z,3.08
2023-05-22T04:49:03.515Z,4.20
2023-05-22T04:51:32.420Z,2.80
2023-05-22T04:53:59.680Z,2.83
2023-05-22T04:56:35.986Z,3.17
2023-05-22T04:59:05.791Z,3.13
2023-05-22T05:01:35.359Z,3.10
2023-05-22T05:04:03.923Z,3.33
2023-05-22T05:06:31.099Z,2.83
2023-05-22T05:08:58.216Z,3.08
2023-05-22T05:11:26.200Z,3.70
2023-05-22T05:13:53.307Z,3.53
2023-05-22T05:16:20.344Z,3.10
2023-05-22T05:18:47.765Z,3.30
2023-05-22T05:21:14.827Z,3.58
2023-05-22T05:23:42.665Z,4.35
2023-05-22T05:26:09.729Z,3.45
2023-05-22T05:28:37.842Z,2.83
2023-05-22T05:31:07.896Z,3.42
2023-05-22T05:33:53.259Z,3.28
2023-05-22T05:36:29.898Z,3.47
2023-05-22T05:38:58.672Z,3.00
2023-05-22T05:41:27.118Z,2.90
2023-05-22T05:44:06.524Z,3.10
2023-05-22T05:46:34.126Z,3.28
2023-05-22T05:49:02.178Z,3.30
2023-05-22T05:51:29.343Z,3.35
2023-05-22T05:53:56.848Z,3.17
2023-05-22T05:56:24.710Z,3.92
2023-05-22T05:58:52.059Z,3.13
2023-05-22T06:01:44.659Z,3.25
2023-05-22T06:04:18.639Z,2.67
2023-05-22T06:06:49.962Z,3.63
2023-05-22T06:09:32.378Z,3.40
2023-05-22T06:12:17.835Z,2.78
2023-05-22T06:14:45.645Z,3.70
2023-05-22T06:17:15.700Z,2.85
2023-05-22T06:19:44.356Z,3.05
2023-05-22T06:22:12.287Z,2.90
2023-05-22T06:24:41.687Z,2.88
2023-05-22T06:27:13.968Z,3.15
2023-05-22T06:29:41.089Z,3.08
2023-05-22T06:32:09.469Z,3.03
2023-05-22T06:34:39.042Z,3.20
2023-05-22T06:37:07.177Z,3.40
2023-05-22T06:39:39.906Z,3.22
2023-05-22T06:42:27.440Z,3.10
2023-05-22T06:45:30.220Z,3.55
2023-05-22T06:48:23.938Z,3.88
2023-05-22T06:51:17.158Z,4.50
2023-05-22T06:53:50.741Z,5.25
2023-05-22T06:56:22.770Z,3.90
2023-05-22T06:59:12.134Z,3.55
2023-05-22T07:02:02.152Z,3.33
2023-05-22T07:04:37.637Z,3.63
2023-05-22T07:07:12.008Z,3.35
2023-05-22T07:09:39.650Z,4.20
2023-05-22T07:12:07.682Z,3.78
2023-05-22T07:14:34.776Z,3.60
2023-05-22T07:17:02.584Z,3.58
2023-05-22T07:19:36.141Z,4.05
2023-05-22T07:22:04.934Z,3.92
2023-05-22T07:24:34.550Z,4.53
2023-05-22T07:27:04.561Z,3.63
2023-05-22T07:29:33.087Z,3.60
2023-05-22T07:32:01.422Z,4.13
2023-05-22T07:34:33.378Z,4.82
2023-05-22T07:37:12.614Z,4.25
2023-05-22T07:39:41.230Z,4.57
2023-05-22T07:42:09.677Z,4.60
2023-05-22T07:44:43.545Z,4.38
2023-05-22T07:47:10.732Z,5.05
2023-05-22T07:49:38.882Z,5.07
2023-05-22T07:52:06.827Z,4.25
2023-05-22T07:54:34.469Z,4.13
2023-05-22T07:57:04.234Z,4.63
2023-05-22T07:59:37.865Z,4.80
2023-05-22T08:02:05.416Z,4.90
2023-05-22T08:04:32.625Z,4.47
2023-05-22T08:06:59.773Z,4.45
2023-05-22T08:09:26.984Z,4.53
2023-05-22T08:11:54.032Z,4.85
2023-05-22T08:14:22.356Z,4.32
2023-05-22T08:16:49.624Z,4.38
2023-05-22T08:19:16.919Z,4.50
2023-05-22T08:21:44.088Z,4.55
2023-05-22T08:24:11.270Z,4.90
2023-05-22T08:26:39.057Z,4.82
2023-05-22T08:29:06.232Z,4.75
2023-05-22T08:31:34.422Z,4.40
2023-05-22T08:34:05.098Z,4.60
2023-05-22T08:36:34.323Z,4.90
2023-05-22T08:39:02.065Z,4.60
2023-05-22T08:41:30.409Z,4.10
2023-05-22T08:43:57.654Z,4.50
2023-05-22T08:46:28.401Z,4.78
2023-05-22T08:48:59.131Z,4.35
2023-05-22T08:51:31.668Z,4.60
2023-05-22T08:54:00.818Z,4.20
2023-05-22T08:56:29.612Z,4.55
2023-05-22T08:58:58.817Z,4.40
2023-05-22T09:01:26.438Z,4.55
2023-05-22T09:03:54.121Z,4.55
2023-05-22T09:06:21.240Z,4.38
2023-05-22T09:08:50.065Z,4.78
2023-05-22T09:11:18.556Z,4.70
2023-05-22T09:13:45.938Z,5.18
2023-05-22T09:16:14.267Z,4.88
2023-05-22T09:18:45.039Z,5.07
2023-05-22T09:21:25.566Z,4.50
2023-05-22T09:24:01.480Z,4.25
2023-05-22T09:26:29.729Z,4.05
2023-05-22T09:28:59.645Z,4.43
2023-05-22T09:31:27.779Z,4.55
2023-05-22T09:33:56.284Z,3.97
2023-05-22T09:36:32.481Z,4.32
2023-05-22T09:41:34.397Z,4.50
2023-05-22T09:44:02.127Z,4.75
2023-05-22T10:17:07.550Z,5.03
2023-05-22T10:19:38.431Z,5.15
2023-05-22T10:22:08.761Z,4.80
2023-05-22T10:24:36.326Z,5.03
2023-05-22T10:27:04.404Z,4.82
2023-05-22T10:29:37.747Z,5.20
2023-05-22T10:32:13.528Z,4.97
2023-05-22T10:34:59.713Z,5.40
2023-05-22T10:37:45.661Z,4.63
2023-05-22T10:40:22.250Z,4.50
2023-05-22T10:42:50.482Z,4.75
2023-05-22T10:45:18.960Z,4.60
2023-05-22T10:47:47.137Z,4.30
2023-05-22T10:50:14.481Z,4.47
2023-05-22T10:52:41.610Z,4.78
2023-05-22T10:55:10.932Z,4.43
2023-05-22T10:57:39.808Z,4.95
2023-05-22T11:00:18.836Z,4.50
2023-05-22T11:02:50.343Z,4.20
2023-05-22T11:05:22.467Z,6.05
2023-05-22T11:07:49.695Z,4.72
2023-05-22T11:10:27.006Z,4.43
2023-05-22T11:13:12.084Z,4.43
2023-05-22T11:15:45.921Z,5.25
2023-05-22T11:18:14.744Z,4.55
2023-05-22T11:20:42.451Z,5.03
2023-05-22T11:23:11.430Z,5.55
2023-05-22T11:25:41.442Z,5.05
2023-05-22T11:28:10.832Z,5.72
2023-05-22T11:30:38.966Z,5.63
2023-05-22T11:33:06.871Z,6.40
2023-05-22T11:35:34.662Z,6.75
2023-05-22T11:38:06.432Z,5.97
2023-05-22T11:40:33.557Z,6.90
2023-05-22T11:43:00.763Z,7.45
2023-05-22T11:45:27.873Z,6.43
2023-05-22T11:47:55.921Z,6.43
2023-05-22T11:50:40.325Z,6.60
2023-05-22T11:53:08.767Z,5.30
2023-05-22T11:55:36.001Z,4.95
2023-05-22T11:58:03.085Z,3.85
2023-05-22T12:00:36.705Z,4.13
2023-05-22T12:03:04.377Z,7.13
2023-05-22T12:05:32.873Z,5.82
2023-05-22T12:08:00.186Z,5.40
2023-05-22T12:10:27.323Z,5.05
2023-05-22T12:12:55.257Z,5.00
2023-05-22T12:15:22.460Z,5.55
2023-05-22T12:17:49.550Z,5.07
2023-05-22T12:20:16.826Z,4.28
2023-05-22T12:22:44.293Z,3.97
2023-05-22T12:25:16.621Z,4.38
2023-05-22T12:27:45.735Z,4.88
2023-05-22T12:30:15.149Z,3.75
2023-05-22T12:32:47.492Z,3.75
2023-05-22T12:35:17.979Z,3.13
2023-05-22T12:37:52.223Z,3.72
2023-05-22T12:40:19.596Z,3.58
2023-05-22T12:42:48.293Z,3.97
2023-05-22T12:45:15.538Z,3.33
2023-05-22T12:47:42.642Z,4.32
2023-05-22T12:50:10.038Z,3.88
2023-05-22T12:52:37.286Z,3.55
2023-05-22T12:55:04.849Z,3.63
2023-05-22T12:57:31.981Z,3.25
2023-05-22T12:59:59.003Z,3.05
2023-05-22T13:02:26.228Z,2.70
2023-05-22T13:04:53.380Z,3.38
2023-05-22T13:07:20.760Z,3.25
2023-05-22T13:09:47.851Z,4.30
2023-05-22T13:12:14.962Z,2.97
2023-05-22T13:14:42.195Z,3.03
2023-05-22T13:17:09.391Z,3.00
2023-05-22T13:19:36.724Z,2.97
2023-05-22T13:22:04.087Z,2.90
2023-05-22T13:24:31.164Z,3.45
2023-05-22T13:26:58.249Z,3.65
2023-05-22T13:29:25.339Z,3.53
2023-05-22T13:31:52.437Z,3.75
2023-05-22T13:34:19.672Z,3.15
2023-05-22T13:36:47.016Z,3.33
2023-05-22T13:39:14.124Z,3.45
2023-05-22T13:41:41.273Z,2.70
2023-05-22T13:44:08.471Z,3.03
2023-05-22T13:46:36.134Z,2.92
2023-05-22T13:49:05.018Z,2.95
2023-05-22T13:51:32.084Z,4.20
2023-05-22T13:53:59.055Z,3.10
2023-05-22T13:56:26.376Z,3.03
2023-05-22T13:58:53.447Z,2.55
2023-05-22T14:01:20.502Z,3.25
2023-05-22T14:03:47.701Z,2.55
2023-05-22T14:06:14.851Z,3.50
2023-05-22T14:08:41.934Z,2.95
2023-05-22T14:11:09.007Z,2.90
2023-05-22T14:13:36.368Z,3.47
2023-05-22T14:16:03.529Z,3.08
2023-05-22T14:18:31.627Z,3.28
2023-05-22T14:20:58.685Z,3.47
2023-05-22T14:23:25.838Z,3.17
2023-05-22T14:25:53.042Z,3.30
2023-05-22T14:28:20.129Z,2.97
2023-05-22T14:30:47.388Z,3.30
2023-05-22T14:33:14.645Z,2.97
2023-05-22T14:35:41.873Z,3.33
2023-05-22T14:38:09.131Z,3.10
2023-05-22T14:40:36.259Z,3.50
2023-05-22T14:43:05.880Z,3.08
2023-05-22T14:45:32.890Z,3.92
2023-05-22T14:47:59.940Z,3.47
2023-05-22T14:50:27.121Z,3.58
2023-05-22T14:52:54.248Z,3.90
2023-05-22T14:55:22.158Z,3.72
2023-05-22T14:57:49.342Z,3.50
2023-05-22T15:00:16.826Z,4.13
2023-05-22T15:02:44.009Z,4.22
2023-05-22T15:05:11.432Z,4.85
2023-05-22T15:10:09.440Z,4.40
2023-05-22T15:12:37.205Z,4.85
2023-05-22T15:15:04.579Z,4.75
2023-05-22T15:17:31.674Z,4.97
2023-05-22T15:19:58.739Z,4.55
2023-05-22T15:22:26.077Z,3.97
2023-05-22T15:25:07.861Z,4.30
2023-05-22T15:27:36.131Z,5.40
2023-05-22T15:30:04.555Z,4.72
2023-05-22T15:32:36.393Z,4.93
2023-05-22T15:35:03.624Z,4.82
2023-05-22T15:37:34.298Z,4.93
2023-05-22T15:40:02.115Z,4.60
2023-05-22T15:42:29.367Z,4.68
2023-05-22T15:44:58.292Z,4.57
2023-05-22T15:47:25.657Z,4.18
2023-05-22T15:49:52.813Z,4.05
2023-05-22T15:52:21.235Z,4.50
2023-05-22T15:54:48.367Z,4.22
2023-05-22T15:57:15.734Z,4.18
2023-05-22T15:59:42.845Z,4.05
2023-05-22T16:02:09.856Z,4.63
2023-05-22T16:04:37.072Z,4.57
2023-05-22T16:07:04.224Z,4.10
2023-05-22T16:09:32.763Z,4.80
2023-05-22T16:12:00.066Z,4.10
2023-05-22T16:14:27.210Z,4.07
2023-05-22T16:16:54.198Z,3.53
2023-05-22T16:19:21.426Z,3.65
2023-05-22T16:21:48.655Z,4.55
2023-05-22T16:24:15.799Z,4.38
2023-05-22T16:26:42.862Z,3.65
2023-05-22T16:29:09.935Z,4.47
2023-05-22T16:31:37.069Z,4.45
2023-05-22T16:34:05.436Z,3.85
2023-05-22T16:36:33.010Z,4.30
2023-05-22T16:39:00.057Z,3.63
2023-05-22T16:41:27.733Z,4.32
2023-05-22T16:43:54.753Z,3.78
2023-05-22T16:46:22.184Z,2.80
2023-05-22T16:48:50.537Z,2.65
2023-05-22T16:51:17.582Z,2.50
2023-05-22T16:53:44.801Z,2.53
2023-05-22T16:56:11.915Z,2.95
2023-05-22T16:58:39.065Z,2.95
2023-05-22T17:01:09.227Z,2.97
2023-05-22T17:03:36.625Z,2.53
2023-05-22T17:06:04.871Z,2.88
2023-05-22T17:08:32.295Z,2.50
2023-05-22T17:10:59.377Z,2.65
2023-05-22T17:13:26.469Z,2.50
2023-05-22T17:15:53.473Z,2.20
2023-05-22T17:18:21.051Z,2.30
2023-05-22T17:20:49.450Z,2.17
2023-05-22T17:23:16.737Z,2.53
2023-05-22T17:25:46.815Z,2.38
2023-05-22T17:28:14.760Z,2.70
2023-05-22T17:30:44.206Z,2.53
2023-05-22T17:33:12.357Z,3.22
2023-05-22T17:35:39.420Z,2.35
2023-05-22T17:38:08.593Z,2.50
2023-05-22T17:40:44.990Z,2.88
2023-05-22T17:43:14.034Z,2.47
2023-05-22T17:45:41.846Z,3.05
2023-05-22T17:48:09.150Z,2.42
2023-05-22T17:50:36.245Z,2.83
2023-05-22T17:53:03.457Z,2.40
2023-05-22T17:55:30.504Z,2.17
2023-05-22T17:57:57.757Z,2.38
2023-05-22T18:00:24.820Z,2.97
2023-05-22T18:02:51.984Z,4.22
2023-05-22T18:05:19.096Z,4.30
2023-05-22T18:07:46.099Z,4.00
2023-05-22T18:10:13.272Z,3.00
2023-05-22T18:12:40.469Z,2.95
2023-05-22T18:15:10.767Z,4.43
2023-05-22T18:17:38.733Z,3.90
2023-05-22T18:20:09.552Z,3.40
2023-05-22T18:22:38.422Z,3.40
2023-05-22T18:25:06.962Z,3.08
2023-05-22T18:27:34.542Z,2.97
2023-05-22T18:30:02.033Z,2.97
2023-05-22T18:32:29.113Z,2.90
2023-05-22T18:34:58.648Z,2.80
2023-05-22T18:37:26.135Z,2.50
2023-05-22T18:39:53.327Z,2.22
2023-05-22T18:42:20.546Z,2.63
2023-05-22T18:44:49.170Z,2.17
2023-05-22T18:47:17.010Z,2.58
2023-05-22T18:49:44.125Z,2.50
2023-05-22T18:52:11.235Z,2.83
2023-05-22T18:54:38.311Z,2.58
2023-05-22T18:57:05.640Z,2.42
2023-05-22T18:59:32.709Z,2.58
2023-05-22T19:01:59.769Z,2.70
2023-05-22T19:04:26.930Z,2.72
2023-05-22T19:06:54.061Z,2.60
2023-05-22T19:09:21.312Z,2.90
2023-05-22T19:11:48.366Z,2.63
2023-05-22T19:14:15.608Z,2.40
2023-05-22T19:16:43.888Z,2.30
2023-05-22T19:19:11.773Z,2.50
2023-05-22T19:21:39.068Z,2.50
2023-05-22T19:24:07.050Z,2.85
2023-05-22T19:26:34.104Z,2.47
2023-05-22T19:29:01.192Z,2.38
2023-05-22T19:31:31.426Z,2.60
2023-05-22T19:33:58.543Z,2.45
2023-05-22T19:36:25.841Z,2.60
2023-05-22T19:38:53.675Z,2.83
2023-05-22T19:41:21.697Z,2.50
2023-05-22T19:43:48.751Z,2.45
2023-05-22T19:46:15.859Z,2.50
2023-05-22T19:48:42.953Z,2.50
2023-05-22T19:51:10.059Z,2.90
2023-05-22T19:53:37.487Z,2.55
2023-05-22T19:56:04.567Z,2.92
2023-05-22T19:58:31.552Z,2.53
2023-05-22T20:00:58.617Z,2.47
2023-05-22T20:03:26.586Z,2.45
2023-05-22T20:05:53.890Z,2.35
2023-05-22T20:08:25.661Z,2.30
2023-05-22T20:10:52.966Z,2.22
2023-05-22T20:13:20.026Z,2.00
2023-05-22T20:15:51.510Z,2.90
2023-05-22T20:18:18.715Z,2.20
2023-05-22T20:20:45.815Z,2.00
2023-05-22T20:23:13.115Z,2.00
2023-05-22T20:25:40.411Z,1.88
2023-05-22T20:28:07.594Z,2.20
2023-05-22T20:30:34.611Z,1.83
2023-05-22T20:33:01.748Z,2.05
2023-05-22T20:35:30.665Z,1.80
2023-05-22T20:38:03.193Z,1.98
2023-05-22T20:40:32.526Z,1.90
2023-05-22T20:43:02.662Z,2.22
2023-05-22T20:45:30.887Z,1.90
2023-05-22T20:47:58.029Z,1.90
2023-05-22T20:50:25.108Z,1.50
2023-05-22T20:52:52.988Z,1.90
2023-05-22T20:55:20.059Z,1.70
2023-05-22T20:57:47.149Z,1.80
2023-05-22T21:00:14.857Z,1.80
2023-05-22T21:02:42.037Z,1.90
2023-05-22T21:05:09.469Z,1.80
2023-05-22T21:07:36.543Z,2.00
2023-05-22T21:10:03.881Z,1.45
2023-05-22T21:12:30.955Z,1.60
2023-05-22T21:14:58.091Z,1.70
2023-05-22T21:17:26.039Z,1.50
2023-05-22T21:19:53.258Z,1.90
2023-05-22T21:22:20.627Z,2.05
2023-05-22T21:24:48.040Z,1.60
2023-05-22T21:27:15.174Z,1.90
2023-05-22T21:29:42.171Z,1.30
2023-05-22T21:32:09.215Z,2.08
2023-05-22T21:34:36.243Z,1.85
2023-05-22T21:37:03.255Z,2.00
2023-05-22T21:39:30.320Z,1.90
2023-05-22T21:41:57.354Z,1.70
2023-05-22T21:44:24.365Z,2.22
2023-05-22T21:46:51.625Z,2.28
2023-05-22T21:49:18.659Z,1.85
2023-05-22T21:51:45.706Z,2.03
2023-05-22T21:54:12.772Z,2.35
2023-05-22T21:56:39.809Z,1.92
2023-05-22T21:59:06.862Z,2.22
2023-05-22T22:01:33.957Z,2.05
2023-05-22T22:04:01.219Z,1.95
2023-05-22T22:06:28.360Z,2.08
2023-05-22T22:08:58.004Z,2.22
2023-05-22T22:11:24.983Z,2.08
2023-05-22T22:13:52.271Z,2.22
2023-05-22T22:16:19.460Z,2.03
2023-05-22T22:18:49.147Z,1.83
2023-05-22T22:21:16.422Z,2.65
2023-05-22T22:23:43.423Z,1.85
2023-05-22T22:26:12.255Z,1.65
2023-05-22T22:28:39.326Z,1.83
2023-05-22T22:31:06.495Z,1.92
2023-05-22T22:33:33.516Z,2.00
2023-05-22T22:36:00.493Z,1.80
2023-05-22T22:38:27.561Z,1.52
2023-05-22T22:40:54.807Z,1.90
2023-05-22T22:43:21.875Z,1.73
2023-05-22T22:45:48.902Z,2.03
2023-05-22T22:48:16.773Z,1.60
2023-05-22T22:50:44.229Z,2.00
2023-05-22T22:53:11.234Z,1.55
2023-05-22T22:55:38.574Z,1.95
2023-05-22T22:58:06.891Z,1.70
2023-05-22T23:00:33.994Z,1.58
2023-05-22T23:03:01.272Z,1.70
2023-05-22T23:05:28.516Z,1.75
2023-05-22T23:07:55.576Z,1.80
2023-05-22T23:10:22.642Z,1.63
2023-05-22T23:12:50.364Z,1.40
2023-05-22T23:15:17.598Z,1.77
2023-05-22T23:17:44.757Z,1.70
2023-05-22T23:20:11.929Z,1.38
2023-05-22T23:22:38.972Z,1.60
2023-05-22T23:25:06.608Z,1.55
2023-05-22T23:27:33.749Z,1.83
2023-05-22T23:30:00.797Z,1.52
2023-05-22T23:32:28.701Z,1.70
2023-05-22T23:34:55.949Z,1.52
2023-05-22T23:37:22.984Z,1.70
2023-05-22T23:39:50.028Z,1.42
2023-05-22T23:42:17.337Z,1.40
2023-05-22T23:44:44.395Z,1.27
2023-05-22T23:47:11.553Z,1.45
2023-05-22T23:49:38.647Z,1.50
2023-05-22T23:52:05.698Z,1.17
2023-05-22T23:54:32.685Z,1.05
2023-05-22T23:56:59.719Z,1.33
2023-05-22T23:59:26.737Z,1.25
